Batchelor, Australia
Current Conditions -  °F | °C
As of 11:30 PM on Thursday 23 Oct 2014 (Local Time) from YPDN Reporting Station
Scattered Clouds Scattered Clouds  
Wind Chill: 82°   Ceiling: Unl
Heat Index: 87°   Visibility: 6mi
Dew Point: 72°   Wind: 10mph
Humidity: 70%   Direction: 310°NW
Pressure: 29.94"   Gusts: NA
Location:  13.05°S, 131.03°E
Report Text: YPDN 231430Z 31009KT 9999 SCT040 28/22 Q1014
Loading
Personal Weather Stations






























Interactive Weather Map
Tropical Storm Tracking
New forecast layout! Learn more

10-Day Weather Forecast

Advertisements
Track Severe Weather on mobile